sim
Sign-in with your pilot id or email,
or register
Callsign
Passwort

Schedule Details

Flight Number: RYR8582 (3)
Departure: London Stansted Airport (EGSS) at 16:35
Arrival: Thessaloniki International Airport (LGTS) at 19:45
Route: Ryanair Passenger Schedule. Enter filed route here before submitting Pirep.

Weather Information
Getting current METAR information for EGSS 192220Z AUTO 03005KT 9999 NCD 10/05 Q1031
Getting current METAR information for LGTS 192220Z 14004KT 9999 FEW020 13/09 Q1023 NOSIG

Schedule Frequency

Route Map